sensor_id;sensor_type;location;lat;lon;timestamp;P1;durP1;ratioP1;P2;durP2;ratioP2
34184;SDS011;20454;48.100;11.776;2022-08-21T00:02:15;3.28;;;2.80;;
34184;SDS011;20454;48.100;11.776;2022-08-21T00:04:43;3.05;;;2.60;;
34184;SDS011;20454;48.100;11.776;2022-08-21T00:07:10;2.38;;;1.95;;
34184;SDS011;20454;48.100;11.776;2022-08-21T00:09:36;4.57;;;2.28;;
34184;SDS011;20454;48.100;11.776;2022-08-21T00:12:02;2.35;;;1.80;;
34184;SDS011;20454;48.100;11.776;2022-08-21T00:14:30;4.72;;;2.95;;
34184;SDS011;20454;48.100;11.776;2022-08-21T00:16:56;2.88;;;2.67;;
34184;SDS011;20454;48.100;11.776;2022-08-21T00:19:23;2.42;;;2.22;;
34184;SDS011;20454;48.100;11.776;2022-08-21T00:21:50;2.22;;;1.95;;
34184;SDS011;20454;48.100;11.776;2022-08-21T00:24:18;4.80;;;2.05;;
34184;SDS011;20454;48.100;11.776;2022-08-21T00:26:46;2.17;;;1.90;;
34184;SDS011;20454;48.100;11.776;2022-08-21T00:29:12;2.50;;;2.30;;
34184;SDS011;20454;48.100;11.776;2022-08-21T00:31:39;2.70;;;1.70;;
34184;SDS011;20454;48.100;11.776;2022-08-21T00:34:06;1.98;;;1.60;;
34184;SDS011;20454;48.100;11.776;2022-08-21T00:36:33;2.75;;;1.63;;
34184;SDS011;20454;48.100;11.776;2022-08-21T00:38:59;2.50;;;1.98;;
34184;SDS011;20454;48.100;11.776;2022-08-21T00:41:26;2.38;;;2.17;;
34184;SDS011;20454;48.100;11.776;2022-08-21T00:43:53;1.73;;;1.58;;
34184;SDS011;20454;48.100;11.776;2022-08-21T00:46:20;1.60;;;1.50;;
34184;SDS011;20454;48.100;11.776;2022-08-21T00:48:45;2.78;;;1.70;;
34184;SDS011;20454;48.100;11.776;2022-08-21T00:51:13;2.55;;;1.83;;
34184;SDS011;20454;48.100;11.776;2022-08-21T00:53:57;1.77;;;1.67;;
34184;SDS011;20454;48.100;11.776;2022-08-21T00:56:26;2.88;;;2.33;;
34184;SDS011;20454;48.100;11.776;2022-08-21T00:58:52;1.98;;;1.73;;
34184;SDS011;20454;48.100;11.776;2022-08-21T01:01:20;2.40;;;2.20;;
34184;SDS011;20454;48.100;11.776;2022-08-21T01:03:46;2.08;;;1.83;;
34184;SDS011;20454;48.100;11.776;2022-08-21T01:06:12;2.08;;;1.60;;
34184;SDS011;20454;48.100;11.776;2022-08-21T01:08:38;2.97;;;1.92;;
34184;SDS011;20454;48.100;11.776;2022-08-21T01:11:04;2.30;;;2.10;;
34184;SDS011;20454;48.100;11.776;2022-08-21T01:13:31;2.08;;;1.88;;
34184;SDS011;20454;48.100;11.776;2022-08-21T01:16:01;1.50;;;1.40;;
34184;SDS011;20454;48.100;11.776;2022-08-21T01:18:33;2.77;;;1.67;;
34184;SDS011;20454;48.100;11.776;2022-08-21T01:21:09;3.20;;;2.90;;
34184;SDS011;20454;48.100;11.776;2022-08-21T01:23:42;1.80;;;1.70;;
34184;SDS011;20454;48.100;11.776;2022-08-21T01:26:13;2.92;;;1.60;;
34184;SDS011;20454;48.100;11.776;2022-08-21T01:28:48;10.20;;;1.80;;
34184;SDS011;20454;48.100;11.776;2022-08-21T01:31:25;2.13;;;2.03;;
34184;SDS011;20454;48.100;11.776;2022-08-21T01:33:54;3.45;;;1.90;;
34184;SDS011;20454;48.100;11.776;2022-08-21T01:36:21;2.78;;;1.73;;
34184;SDS011;20454;48.100;11.776;2022-08-21T01:38:48;3.35;;;1.80;;
34184;SDS011;20454;48.100;11.776;2022-08-21T01:41:15;3.50;;;1.58;;
34184;SDS011;20454;48.100;11.776;2022-08-21T01:43:42;2.10;;;1.90;;
34184;SDS011;20454;48.100;11.776;2022-08-21T01:46:09;1.77;;;1.45;;
34184;SDS011;20454;48.100;11.776;2022-08-21T01:48:36;2.03;;;1.90;;
34184;SDS011;20454;48.100;11.776;2022-08-21T01:51:03;1.67;;;1.58;;
34184;SDS011;20454;48.100;11.776;2022-08-21T01:53:30;2.03;;;1.83;;
34184;SDS011;20454;48.100;11.776;2022-08-21T01:55:56;2.35;;;1.90;;
34184;SDS011;20454;48.100;11.776;2022-08-21T01:58:22;1.85;;;1.70;;
34184;SDS011;20454;48.100;11.776;2022-08-21T02:00:47;1.80;;;1.70;;
34184;SDS011;20454;48.100;11.776;2022-08-21T02:03:14;1.85;;;1.45;;
34184;SDS011;20454;48.100;11.776;2022-08-21T02:05:40;2.72;;;2.08;;
34184;SDS011;20454;48.100;11.776;2022-08-21T02:08:06;1.42;;;1.33;;
34184;SDS011;20454;48.100;11.776;2022-08-21T02:10:32;2.70;;;1.50;;
34184;SDS011;20454;48.100;11.776;2022-08-21T02:12:59;2.35;;;1.30;;
34184;SDS011;20454;48.100;11.776;2022-08-21T02:15:26;1.85;;;1.75;;
34184;SDS011;20454;48.100;11.776;2022-08-21T02:17:58;1.60;;;1.33;;
34184;SDS011;20454;48.100;11.776;2022-08-21T02:20:32;1.85;;;1.13;;
34184;SDS011;20454;48.100;11.776;2022-08-21T02:23:06;1.50;;;1.08;;
34184;SDS011;20454;48.100;11.776;2022-08-21T02:25:33;0.98;;;0.88;;
34184;SDS011;20454;48.100;11.776;2022-08-21T02:28:03;1.65;;;1.15;;
34184;SDS011;20454;48.100;11.776;2022-08-21T02:30:33;1.00;;;0.82;;
34184;SDS011;20454;48.100;11.776;2022-08-21T02:33:03;0.90;;;0.90;;
34184;SDS011;20454;48.100;11.776;2022-08-21T02:35:30;1.75;;;1.65;;
34184;SDS011;20454;48.100;11.776;2022-08-21T02:37:58;2.20;;;1.10;;
34184;SDS011;20454;48.100;11.776;2022-08-21T02:40:28;1.67;;;1.58;;
34184;SDS011;20454;48.100;11.776;2022-08-21T02:42:58;1.20;;;1.10;;
34184;SDS011;20454;48.100;11.776;2022-08-21T02:45:25;2.40;;;1.65;;
34184;SDS011;20454;48.100;11.776;2022-08-21T02:47:57;1.95;;;0.98;;
34184;SDS011;20454;48.100;11.776;2022-08-21T02:50:27;0.95;;;0.95;;
34184;SDS011;20454;48.100;11.776;2022-08-21T02:53:02;2.13;;;1.40;;
34184;SDS011;20454;48.100;11.776;2022-08-21T02:55:30;0.90;;;0.90;;
34184;SDS011;20454;48.100;11.776;2022-08-21T02:57:59;2.15;;;0.90;;
34184;SDS011;20454;48.100;11.776;2022-08-21T03:00:30;1.20;;;1.10;;
34184;SDS011;20454;48.100;11.776;2022-08-21T03:02:58;4.32;;;1.10;;
34184;SDS011;20454;48.100;11.776;2022-08-21T03:05:25;1.20;;;1.08;;
34184;SDS011;20454;48.100;11.776;2022-08-21T03:07:53;1.30;;;1.20;;
34184;SDS011;20454;48.100;11.776;2022-08-21T03:10:20;1.73;;;1.20;;
34184;SDS011;20454;48.100;11.776;2022-08-21T03:12:47;1.77;;;1.45;;
34184;SDS011;20454;48.100;11.776;2022-08-21T03:15:15;1.42;;;1.33;;
34184;SDS011;20454;48.100;11.776;2022-08-21T03:17:43;1.00;;;1.00;;
34184;SDS011;20454;48.100;11.776;2022-08-21T03:20:11;1.10;;;1.00;;
34184;SDS011;20454;48.100;11.776;2022-08-21T03:22:39;1.92;;;1.10;;
34184;SDS011;20454;48.100;11.776;2022-08-21T03:25:05;1.05;;;0.95;;
34184;SDS011;20454;48.100;11.776;2022-08-21T03:27:33;1.10;;;1.00;;
34184;SDS011;20454;48.100;11.776;2022-08-21T03:29:59;1.42;;;1.33;;
34184;SDS011;20454;48.100;11.776;2022-08-21T03:32:26;1.38;;;1.00;;
34184;SDS011;20454;48.100;11.776;2022-08-21T03:34:52;2.80;;;1.83;;
34184;SDS011;20454;48.100;11.776;2022-08-21T03:37:18;1.10;;;1.00;;
34184;SDS011;20454;48.100;11.776;2022-08-21T03:39:44;1.40;;;1.30;;
34184;SDS011;20454;48.100;11.776;2022-08-21T03:42:10;1.55;;;1.45;;
34184;SDS011;20454;48.100;11.776;2022-08-21T03:44:36;1.27;;;1.17;;
34184;SDS011;20454;48.100;11.776;2022-08-21T03:47:04;1.30;;;1.17;;
34184;SDS011;20454;48.100;11.776;2022-08-21T03:49:31;1.05;;;1.02;;
34184;SDS011;20454;48.100;11.776;2022-08-21T03:51:57;3.70;;;1.35;;
34184;SDS011;20454;48.100;11.776;2022-08-21T03:54:23;1.50;;;1.40;;
34184;SDS011;20454;48.100;11.776;2022-08-21T03:56:48;1.52;;;1.42;;
34184;SDS011;20454;48.100;11.776;2022-08-21T03:59:14;2.65;;;1.15;;
34184;SDS011;20454;48.100;11.776;2022-08-21T04:01:50;1.23;;;1.13;;
34184;SDS011;20454;48.100;11.776;2022-08-21T04:04:21;1.20;;;1.10;;
34184;SDS011;20454;48.100;11.776;2022-08-21T04:06:47;2.50;;;2.05;;
34184;SDS011;20454;48.100;11.776;2022-08-21T04:09:13;1.60;;;1.50;;
34184;SDS011;20454;48.100;11.776;2022-08-21T04:11:38;1.70;;;1.60;;
34184;SDS011;20454;48.100;11.776;2022-08-21T04:14:04;1.58;;;1.48;;
34184;SDS011;20454;48.100;11.776;2022-08-21T04:16:30;1.42;;;1.25;;
34184;SDS011;20454;48.100;11.776;2022-08-21T04:18:56;1.13;;;1.02;;
34184;SDS011;20454;48.100;11.776;2022-08-21T04:21:22;1.45;;;1.13;;
34184;SDS011;20454;48.100;11.776;2022-08-21T04:23:49;1.42;;;1.33;;
34184;SDS011;20454;48.100;11.776;2022-08-21T04:26:15;1.20;;;1.10;;
34184;SDS011;20454;48.100;11.776;2022-08-21T04:28:41;1.25;;;1.10;;
34184;SDS011;20454;48.100;11.776;2022-08-21T04:31:07;1.00;;;1.00;;
34184;SDS011;20454;48.100;11.776;2022-08-21T04:33:34;1.05;;;1.00;;
34184;SDS011;20454;48.100;11.776;2022-08-21T04:36:00;1.02;;;0.95;;
34184;SDS011;20454;48.100;11.776;2022-08-21T04:38:26;2.33;;;0.98;;
34184;SDS011;20454;48.100;11.776;2022-08-21T04:40:52;1.45;;;1.35;;
34184;SDS011;20454;48.100;11.776;2022-08-21T04:43:18;0.80;;;0.80;;
34184;SDS011;20454;48.100;11.776;2022-08-21T04:45:48;0.80;;;0.80;;
34184;SDS011;20454;48.100;11.776;2022-08-21T04:48:18;0.90;;;0.90;;
34184;SDS011;20454;48.100;11.776;2022-08-21T04:53:45;0.90;;;0.90;;
34184;SDS011;20454;48.100;11.776;2022-08-21T04:56:21;1.42;;;1.30;;
34184;SDS011;20454;48.100;11.776;2022-08-21T04:58:56;1.30;;;1.20;;
34184;SDS011;20454;48.100;11.776;2022-08-21T05:01:28;1.33;;;1.23;;
34184;SDS011;20454;48.100;11.776;2022-08-21T05:03:58;1.15;;;1.05;;
34184;SDS011;20454;48.100;11.776;2022-08-21T05:06:27;1.00;;;1.00;;
34184;SDS011;20454;48.100;11.776;2022-08-21T05:08:56;1.00;;;0.90;;
34184;SDS011;20454;48.100;11.776;2022-08-21T05:11:22;1.10;;;1.00;;
34184;SDS011;20454;48.100;11.776;2022-08-21T05:13:49;1.30;;;1.20;;
34184;SDS011;20454;48.100;11.776;2022-08-21T05:16:15;1.30;;;1.20;;
34184;SDS011;20454;48.100;11.776;2022-08-21T05:18:41;1.02;;;0.93;;
34184;SDS011;20454;48.100;11.776;2022-08-21T05:21:08;0.95;;;0.90;;
34184;SDS011;20454;48.100;11.776;2022-08-21T05:23:34;1.25;;;1.15;;
34184;SDS011;20454;48.100;11.776;2022-08-21T05:26:02;1.10;;;1.00;;
34184;SDS011;20454;48.100;11.776;2022-08-21T05:28:29;0.88;;;0.88;;
34184;SDS011;20454;48.100;11.776;2022-08-21T05:30:56;1.15;;;0.90;;
34184;SDS011;20454;48.100;11.776;2022-08-21T05:33:22;0.82;;;0.82;;
34184;SDS011;20454;48.100;11.776;2022-08-21T05:35:50;0.65;;;0.65;;
34184;SDS011;20454;48.100;11.776;2022-08-21T05:38:18;2.17;;;0.88;;
34184;SDS011;20454;48.100;11.776;2022-08-21T05:40:44;2.45;;;0.88;;
34184;SDS011;20454;48.100;11.776;2022-08-21T05:43:11;0.95;;;0.95;;
34184;SDS011;20454;48.100;11.776;2022-08-21T05:45:37;1.77;;;0.73;;
34184;SDS011;20454;48.100;11.776;2022-08-21T05:48:10;2.20;;;1.05;;
34184;SDS011;20454;48.100;11.776;2022-08-21T05:50:42;0.85;;;0.85;;
34184;SDS011;20454;48.100;11.776;2022-08-21T05:53:10;0.93;;;0.93;;
34184;SDS011;20454;48.100;11.776;2022-08-21T05:55:37;1.65;;;1.00;;
34184;SDS011;20454;48.100;11.776;2022-08-21T05:58:03;0.80;;;0.80;;
34184;SDS011;20454;48.100;11.776;2022-08-21T06:00:30;1.00;;;1.00;;
34184;SDS011;20454;48.100;11.776;2022-08-21T06:02:57;1.10;;;1.00;;
34184;SDS011;20454;48.100;11.776;2022-08-21T06:05:23;1.00;;;0.82;;
34184;SDS011;20454;48.100;11.776;2022-08-21T06:07:49;0.95;;;0.90;;
34184;SDS011;20454;48.100;11.776;2022-08-21T06:10:15;0.85;;;0.77;;
34184;SDS011;20454;48.100;11.776;2022-08-21T06:12:41;1.23;;;0.70;;
34184;SDS011;20454;48.100;11.776;2022-08-21T06:15:07;0.73;;;0.73;;
34184;SDS011;20454;48.100;11.776;2022-08-21T06:17:33;0.70;;;0.70;;
34184;SDS011;20454;48.100;11.776;2022-08-21T06:19:59;1.00;;;0.88;;
34184;SDS011;20454;48.100;11.776;2022-08-21T06:22:25;0.90;;;0.90;;
34184;SDS011;20454;48.100;11.776;2022-08-21T06:24:50;1.08;;;0.90;;
34184;SDS011;20454;48.100;11.776;2022-08-21T06:27:16;1.80;;;1.17;;
34184;SDS011;20454;48.100;11.776;2022-08-21T06:29:42;1.15;;;0.73;;
34184;SDS011;20454;48.100;11.776;2022-08-21T06:32:10;1.73;;;0.80;;
34184;SDS011;20454;48.100;11.776;2022-08-21T06:34:38;3.97;;;1.02;;
34184;SDS011;20454;48.100;11.776;2022-08-21T06:37:06;1.67;;;1.05;;
34184;SDS011;20454;48.100;11.776;2022-08-21T06:39:33;1.50;;;0.90;;
34184;SDS011;20454;48.100;11.776;2022-08-21T06:41:59;1.42;;;1.00;;
34184;SDS011;20454;48.100;11.776;2022-08-21T06:44:25;1.30;;;1.10;;
34184;SDS011;20454;48.100;11.776;2022-08-21T06:46:51;1.90;;;1.58;;
34184;SDS011;20454;48.100;11.776;2022-08-21T06:49:17;2.67;;;0.93;;
34184;SDS011;20454;48.100;11.776;2022-08-21T06:51:43;1.42;;;1.00;;
34184;SDS011;20454;48.100;11.776;2022-08-21T06:54:09;1.15;;;1.05;;
34184;SDS011;20454;48.100;11.776;2022-08-21T06:56:35;1.23;;;1.13;;
34184;SDS011;20454;48.100;11.776;2022-08-21T06:59:03;1.40;;;1.20;;
34184;SDS011;20454;48.100;11.776;2022-08-21T07:01:30;2.72;;;1.30;;
34184;SDS011;20454;48.100;11.776;2022-08-21T07:03:56;3.83;;;1.77;;
34184;SDS011;20454;48.100;11.776;2022-08-21T07:06:22;2.53;;;1.15;;
34184;SDS011;20454;48.100;11.776;2022-08-21T07:08:48;1.50;;;1.38;;
34184;SDS011;20454;48.100;11.776;2022-08-21T07:11:18;2.22;;;2.03;;
34184;SDS011;20454;48.100;11.776;2022-08-21T07:13:48;1.42;;;1.33;;
34184;SDS011;20454;48.100;11.776;2022-08-21T07:16:16;3.28;;;1.50;;
34184;SDS011;20454;48.100;11.776;2022-08-21T07:18:42;1.50;;;1.40;;
34184;SDS011;20454;48.100;11.776;2022-08-21T07:21:08;1.95;;;1.75;;
34184;SDS011;20454;48.100;11.776;2022-08-21T07:23:36;1.23;;;1.13;;
34184;SDS011;20454;48.100;11.776;2022-08-21T07:26:07;1.63;;;1.52;;
34184;SDS011;20454;48.100;11.776;2022-08-21T07:28:33;1.58;;;1.48;;
34184;SDS011;20454;48.100;11.776;2022-08-21T07:31:00;2.25;;;1.50;;
34184;SDS011;20454;48.100;11.776;2022-08-21T07:33:27;2.42;;;1.92;;
34184;SDS011;20454;48.100;11.776;2022-08-21T07:35:55;2.05;;;1.40;;
34184;SDS011;20454;48.100;11.776;2022-08-21T07:38:21;2.00;;;1.90;;
34184;SDS011;20454;48.100;11.776;2022-08-21T07:40:48;3.80;;;1.80;;
34184;SDS011;20454;48.100;11.776;2022-08-21T10:22:29;1.67;;;1.58;;
34184;SDS011;20454;48.100;11.776;2022-08-21T10:30:21;2.58;;;1.98;;
34184;SDS011;20454;48.100;11.776;2022-08-21T10:39:01;2.80;;;2.60;;
34184;SDS011;20454;48.100;11.776;2022-08-21T10:42:20;2.08;;;1.75;;
34184;SDS011;20454;48.100;11.776;2022-08-21T10:45:22;2.55;;;1.33;;
34184;SDS011;20454;48.100;11.776;2022-08-21T10:48:37;2.00;;;1.67;;
34184;SDS011;20454;48.100;11.776;2022-08-21T10:54:02;1.95;;;1.58;;
34184;SDS011;20454;48.100;11.776;2022-08-21T10:57:11;2.00;;;1.90;;
34184;SDS011;20454;48.100;11.776;2022-08-21T10:59:55;2.25;;;1.75;;
34184;SDS011;20454;48.100;11.776;2022-08-21T11:02:35;2.55;;;1.52;;
34184;SDS011;20454;48.100;11.776;2022-08-21T11:07:48;2.13;;;1.92;;
34184;SDS011;20454;48.100;11.776;2022-08-21T11:10:34;1.65;;;1.55;;
34184;SDS011;20454;48.100;11.776;2022-08-21T11:16:37;2.63;;;1.52;;
34184;SDS011;20454;48.100;11.776;2022-08-21T11:30:11;1.60;;;1.50;;
34184;SDS011;20454;48.100;11.776;2022-08-21T11:39:15;1.85;;;1.75;;
34184;SDS011;20454;48.100;11.776;2022-08-21T11:53:26;1.50;;;1.40;;
34184;SDS011;20454;48.100;11.776;2022-08-21T11:55:34;1.77;;;1.60;;
34184;SDS011;20454;48.100;11.776;2022-08-21T12:01:06;1.55;;;1.42;;
34184;SDS011;20454;48.100;11.776;2022-08-21T12:03:42;1.40;;;1.30;;
34184;SDS011;20454;48.100;11.776;2022-08-21T12:06:30;2.78;;;1.33;;
34184;SDS011;20454;48.100;11.776;2022-08-21T12:09:07;1.23;;;1.13;;
34184;SDS011;20454;48.100;11.776;2022-08-21T12:11:48;4.53;;;1.40;;
34184;SDS011;20454;48.100;11.776;2022-08-21T12:15:05;1.30;;;1.20;;
34184;SDS011;20454;48.100;11.776;2022-08-21T12:23:02;1.45;;;1.27;;
34184;SDS011;20454;48.100;11.776;2022-08-21T12:28:09;1.77;;;1.38;;
34184;SDS011;20454;48.100;11.776;2022-08-21T12:30:46;1.45;;;1.35;;
34184;SDS011;20454;48.100;11.776;2022-08-21T12:33:21;1.27;;;1.17;;
34184;SDS011;20454;48.100;11.776;2022-08-21T12:36:12;2.95;;;1.42;;
34184;SDS011;20454;48.100;11.776;2022-08-21T12:38:56;1.55;;;1.45;;
34184;SDS011;20454;48.100;11.776;2022-08-21T12:41:40;1.13;;;1.02;;
34184;SDS011;20454;48.100;11.776;2022-08-21T12:44:08;1.50;;;1.40;;
34184;SDS011;20454;48.100;11.776;2022-08-21T12:46:43;2.55;;;1.30;;
34184;SDS011;20454;48.100;11.776;2022-08-21T12:49:18;1.70;;;1.60;;
34184;SDS011;20454;48.100;11.776;2022-08-21T12:52:11;1.60;;;1.50;;
34184;SDS011;20454;48.100;11.776;2022-08-21T12:54:53;1.75;;;1.48;;
34184;SDS011;20454;48.100;11.776;2022-08-21T12:57:21;3.05;;;1.35;;
34184;SDS011;20454;48.100;11.776;2022-08-21T12:59:54;1.70;;;1.60;;
34184;SDS011;20454;48.100;11.776;2022-08-21T13:02:24;1.95;;;1.85;;
34184;SDS011;20454;48.100;11.776;2022-08-21T13:05:04;2.05;;;1.92;;
34184;SDS011;20454;48.100;11.776;2022-08-21T13:07:35;1.63;;;1.38;;
34184;SDS011;20454;48.100;11.776;2022-08-21T13:10:06;3.78;;;2.03;;
34184;SDS011;20454;48.100;11.776;2022-08-21T13:12:49;2.47;;;1.80;;
34184;SDS011;20454;48.100;11.776;2022-08-21T13:15:23;1.38;;;1.27;;
34184;SDS011;20454;48.100;11.776;2022-08-21T13:17:54;2.30;;;1.60;;
34184;SDS011;20454;48.100;11.776;2022-08-21T13:20:28;1.15;;;1.08;;
34184;SDS011;20454;48.100;11.776;2022-08-21T13:23:06;1.80;;;1.40;;
34184;SDS011;20454;48.100;11.776;2022-08-21T13:25:54;2.13;;;1.92;;
34184;SDS011;20454;48.100;11.776;2022-08-21T13:28:21;1.38;;;1.27;;
34184;SDS011;20454;48.100;11.776;2022-08-21T13:30:48;1.90;;;1.40;;
34184;SDS011;20454;48.100;11.776;2022-08-21T13:33:20;1.50;;;1.40;;
34184;SDS011;20454;48.100;11.776;2022-08-21T13:38:27;2.33;;;1.60;;
34184;SDS011;20454;48.100;11.776;2022-08-21T13:40:57;2.15;;;1.48;;
34184;SDS011;20454;48.100;11.776;2022-08-21T13:43:48;3.15;;;1.33;;
34184;SDS011;20454;48.100;11.776;2022-08-21T13:46:29;2.67;;;1.10;;
34184;SDS011;20454;48.100;11.776;2022-08-21T13:48:59;1.75;;;1.55;;
34184;SDS011;20454;48.100;11.776;2022-08-21T13:51:28;1.95;;;1.52;;
34184;SDS011;20454;48.100;11.776;2022-08-21T13:53:56;1.92;;;1.80;;
34184;SDS011;20454;48.100;11.776;2022-08-21T13:58:53;1.70;;;1.60;;
34184;SDS011;20454;48.100;11.776;2022-08-21T14:01:23;3.03;;;1.48;;
34184;SDS011;20454;48.100;11.776;2022-08-21T14:04:14;1.45;;;1.35;;
34184;SDS011;20454;48.100;11.776;2022-08-21T14:06:47;1.98;;;1.20;;
34184;SDS011;20454;48.100;11.776;2022-08-21T14:09:21;1.83;;;1.30;;
34184;SDS011;20454;48.100;11.776;2022-08-21T14:11:55;1.85;;;1.75;;
34184;SDS011;20454;48.100;11.776;2022-08-21T14:17:07;1.90;;;1.80;;
34184;SDS011;20454;48.100;11.776;2022-08-21T14:19:41;1.48;;;1.38;;
34184;SDS011;20454;48.100;11.776;2022-08-21T14:27:58;1.48;;;1.38;;
34184;SDS011;20454;48.100;11.776;2022-08-21T14:30:41;1.98;;;1.88;;
34184;SDS011;20454;48.100;11.776;2022-08-21T14:33:09;1.85;;;1.75;;
34184;SDS011;20454;48.100;11.776;2022-08-21T14:35:39;1.48;;;1.38;;
34184;SDS011;20454;48.100;11.776;2022-08-21T14:38:15;1.40;;;1.30;;
34184;SDS011;20454;48.100;11.776;2022-08-21T14:40:46;1.38;;;1.27;;
34184;SDS011;20454;48.100;11.776;2022-08-21T14:43:19;1.15;;;1.00;;
34184;SDS011;20454;48.100;11.776;2022-08-21T14:45:45;3.78;;;1.75;;
34184;SDS011;20454;48.100;11.776;2022-08-21T14:48:11;3.10;;;1.83;;
34184;SDS011;20454;48.100;11.776;2022-08-21T14:50:38;3.35;;;1.27;;
34184;SDS011;20454;48.100;11.776;2022-08-21T14:53:04;1.88;;;1.77;;
34184;SDS011;20454;48.100;11.776;2022-08-21T14:55:30;1.80;;;1.70;;
34184;SDS011;20454;48.100;11.776;2022-08-21T14:58:16;3.05;;;1.73;;
34184;SDS011;20454;48.100;11.776;2022-08-21T15:00:42;1.60;;;1.50;;
34184;SDS011;20454;48.100;11.776;2022-08-21T15:03:08;2.55;;;1.20;;
34184;SDS011;20454;48.100;11.776;2022-08-21T15:05:34;5.30;;;1.67;;
34184;SDS011;20454;48.100;11.776;2022-08-21T15:08:00;3.33;;;1.70;;
34184;SDS011;20454;48.100;11.776;2022-08-21T15:10:26;7.25;;;1.67;;
34184;SDS011;20454;48.100;11.776;2022-08-21T15:12:54;1.67;;;1.58;;
34184;SDS011;20454;48.100;11.776;2022-08-21T15:15:20;2.38;;;2.17;;
34184;SDS011;20454;48.100;11.776;2022-08-21T15:17:46;1.52;;;1.42;;
34184;SDS011;20454;48.100;11.776;2022-08-21T15:20:12;1.90;;;1.73;;
34184;SDS011;20454;48.100;11.776;2022-08-21T15:22:38;1.75;;;1.50;;
34184;SDS011;20454;48.100;11.776;2022-08-21T15:25:04;1.50;;;1.40;;
34184;SDS011;20454;48.100;11.776;2022-08-21T15:27:30;3.28;;;1.45;;
34184;SDS011;20454;48.100;11.776;2022-08-21T15:29:56;1.60;;;1.50;;
34184;SDS011;20454;48.100;11.776;2022-08-21T15:32:24;1.80;;;1.55;;
34184;SDS011;20454;48.100;11.776;2022-08-21T15:34:54;2.47;;;1.88;;
34184;SDS011;20454;48.100;11.776;2022-08-21T15:37:21;8.90;;;1.67;;
34184;SDS011;20454;48.100;11.776;2022-08-21T15:39:49;2.05;;;1.50;;
34184;SDS011;20454;48.100;11.776;2022-08-21T15:42:17;1.48;;;1.25;;
34184;SDS011;20454;48.100;11.776;2022-08-21T15:44:44;1.60;;;1.50;;
34184;SDS011;20454;48.100;11.776;2022-08-21T15:47:13;4.85;;;1.70;;
34184;SDS011;20454;48.100;11.776;2022-08-21T15:49:42;2.28;;;1.50;;
34184;SDS011;20454;48.100;11.776;2022-08-21T15:52:14;2.17;;;1.63;;
34184;SDS011;20454;48.100;11.776;2022-08-21T15:54:42;2.60;;;1.83;;
34184;SDS011;20454;48.100;11.776;2022-08-21T15:57:09;2.28;;;1.42;;
34184;SDS011;20454;48.100;11.776;2022-08-21T15:59:39;1.60;;;1.50;;
34184;SDS011;20454;48.100;11.776;2022-08-21T16:02:15;1.58;;;1.48;;
34184;SDS011;20454;48.100;11.776;2022-08-21T16:04:51;2.40;;;1.17;;
34184;SDS011;20454;48.100;11.776;2022-08-21T16:07:17;2.30;;;1.88;;
34184;SDS011;20454;48.100;11.776;2022-08-21T16:09:44;1.92;;;1.65;;
34184;SDS011;20454;48.100;11.776;2022-08-21T16:12:11;1.90;;;1.70;;
34184;SDS011;20454;48.100;11.776;2022-08-21T16:14:44;4.90;;;1.35;;
34184;SDS011;20454;48.100;11.776;2022-08-21T16:17:10;2.40;;;1.42;;
34184;SDS011;20454;48.100;11.776;2022-08-21T16:19:36;2.10;;;1.70;;
34184;SDS011;20454;48.100;11.776;2022-08-21T16:22:03;2.75;;;1.50;;
34184;SDS011;20454;48.100;11.776;2022-08-21T16:24:29;2.47;;;1.55;;
34184;SDS011;20454;48.100;11.776;2022-08-21T16:26:55;2.05;;;1.85;;
34184;SDS011;20454;48.100;11.776;2022-08-21T16:29:21;2.78;;;1.90;;
34184;SDS011;20454;48.100;11.776;2022-08-21T16:31:48;2.85;;;1.63;;
34184;SDS011;20454;48.100;11.776;2022-08-21T16:34:15;2.10;;;1.50;;
34184;SDS011;20454;48.100;11.776;2022-08-21T16:36:44;2.40;;;1.73;;
34184;SDS011;20454;48.100;11.776;2022-08-21T16:39:11;3.05;;;1.70;;
34184;SDS011;20454;48.100;11.776;2022-08-21T16:41:37;2.03;;;1.83;;
34184;SDS011;20454;48.100;11.776;2022-08-21T16:44:03;2.28;;;2.08;;
34184;SDS011;20454;48.100;11.776;2022-08-21T16:46:34;3.42;;;2.58;;
34184;SDS011;20454;48.100;11.776;2022-08-21T16:49:04;3.15;;;2.85;;
34184;SDS011;20454;48.100;11.776;2022-08-21T16:51:30;4.30;;;2.58;;
34184;SDS011;20454;48.100;11.776;2022-08-21T16:53:59;2.33;;;2.10;;
34184;SDS011;20454;48.100;11.776;2022-08-21T16:56:25;2.90;;;2.40;;
34184;SDS011;20454;48.100;11.776;2022-08-21T16:58:52;2.55;;;2.35;;
34184;SDS011;20454;48.100;11.776;2022-08-21T17:01:20;3.85;;;2.13;;
34184;SDS011;20454;48.100;11.776;2022-08-21T19:47:12;6.07;;;4.00;;
34184;SDS011;20454;48.100;11.776;2022-08-21T19:49:40;7.00;;;4.25;;
34184;SDS011;20454;48.100;11.776;2022-08-21T19:52:11;4.18;;;3.45;;
34184;SDS011;20454;48.100;11.776;2022-08-21T19:54:37;4.70;;;4.10;;
34184;SDS011;20454;48.100;11.776;2022-08-21T19:57:04;5.47;;;3.97;;
34184;SDS011;20454;48.100;11.776;2022-08-21T19:59:32;3.78;;;3.45;;
34184;SDS011;20454;48.100;11.776;2022-08-21T20:02:00;3.97;;;3.67;;
34184;SDS011;20454;48.100;11.776;2022-08-21T20:04:27;3.97;;;3.60;;
34184;SDS011;20454;48.100;11.776;2022-08-21T20:06:53;6.15;;;4.00;;
34184;SDS011;20454;48.100;11.776;2022-08-21T20:09:19;3.78;;;3.40;;
34184;SDS011;20454;48.100;11.776;2022-08-21T20:11:53;4.00;;;3.70;;
34184;SDS011;20454;48.100;11.776;2022-08-21T20:14:23;8.18;;;5.18;;
34184;SDS011;20454;48.100;11.776;2022-08-21T20:16:52;4.10;;;3.78;;
34184;SDS011;20454;48.100;11.776;2022-08-21T20:19:20;4.10;;;3.80;;
34184;SDS011;20454;48.100;11.776;2022-08-21T20:21:46;4.35;;;3.95;;
34184;SDS011;20454;48.100;11.776;2022-08-21T20:24:13;5.13;;;3.90;;
34184;SDS011;20454;48.100;11.776;2022-08-21T20:26:40;4.32;;;4.03;;
34184;SDS011;20454;48.100;11.776;2022-08-21T20:29:08;5.07;;;3.60;;
34184;SDS011;20454;48.100;11.776;2022-08-21T20:31:34;5.82;;;3.83;;
34184;SDS011;20454;48.100;11.776;2022-08-21T20:33:59;3.88;;;3.58;;
34184;SDS011;20454;48.100;11.776;2022-08-21T20:36:25;6.68;;;4.30;;
34184;SDS011;20454;48.100;11.776;2022-08-21T20:38:51;3.58;;;3.33;;
34184;SDS011;20454;48.100;11.776;2022-08-21T20:41:18;4.10;;;3.80;;
34184;SDS011;20454;48.100;11.776;2022-08-21T20:43:46;4.18;;;3.75;;
34184;SDS011;20454;48.100;11.776;2022-08-21T20:46:15;4.55;;;4.25;;
34184;SDS011;20454;48.100;11.776;2022-08-21T20:48:45;3.88;;;3.50;;
34184;SDS011;20454;48.100;11.776;2022-08-21T20:53:49;4.03;;;3.72;;
34184;SDS011;20454;48.100;11.776;2022-08-21T20:56:31;3.78;;;3.58;;
34184;SDS011;20454;48.100;11.776;2022-08-21T21:10:24;4.35;;;3.95;;
34184;SDS011;20454;48.100;11.776;2022-08-21T21:16:22;4.22;;;3.72;;
34184;SDS011;20454;48.100;11.776;2022-08-21T21:19:05;5.03;;;3.70;;
34184;SDS011;20454;48.100;11.776;2022-08-21T21:27:06;4.57;;;4.18;;
34184;SDS011;20454;48.100;11.776;2022-08-21T21:29:47;5.72;;;4.00;;
34184;SDS011;20454;48.100;11.776;2022-08-21T21:32:22;3.90;;;3.60;;
34184;SDS011;20454;48.100;11.776;2022-08-21T21:34:48;3.90;;;3.58;;
34184;SDS011;20454;48.100;11.776;2022-08-21T21:39:49;3.92;;;3.63;;
34184;SDS011;20454;48.100;11.776;2022-08-21T21:42:50;8.45;;;4.25;;
34184;SDS011;20454;48.100;11.776;2022-08-21T21:46:24;4.10;;;3.75;;
34184;SDS011;20454;48.100;11.776;2022-08-21T21:57:01;3.35;;;3.15;;
34184;SDS011;20454;48.100;11.776;2022-08-21T22:02:34;4.15;;;3.85;;
34184;SDS011;20454;48.100;11.776;2022-08-21T22:08:12;4.28;;;3.42;;
34184;SDS011;20454;48.100;11.776;2022-08-21T22:11:10;4.90;;;3.70;;